sensor_id;sensor_type;location;lat;lon;timestamp;temperature;humidity
69938;DHT22;57248;47.320;15.998;2023-04-25T00:00:07;10.18;64.10
69938;DHT22;57248;47.320;15.998;2023-04-25T00:02:40;10.18;64.52
69938;DHT22;57248;47.320;15.998;2023-04-25T00:05:13;9.95;68.27
69938;DHT22;57248;47.320;15.998;2023-04-25T00:07:46;9.77;70.01
69938;DHT22;57248;47.320;15.998;2023-04-25T00:10:19;9.74;69.67
69938;DHT22;57248;47.320;15.998;2023-04-25T00:12:52;9.84;67.28
69938;DHT22;57248;47.320;15.998;2023-04-25T00:15:24;9.91;64.82
69938;DHT22;57248;47.320;15.998;2023-04-25T00:18:03;9.78;69.19
69938;DHT22;57248;47.320;15.998;2023-04-25T00:20:35;9.81;68.54
69938;DHT22;57248;47.320;15.998;2023-04-25T00:23:07;9.71;68.96
69938;DHT22;57248;47.320;15.998;2023-04-25T00:25:32;9.64;69.52
69938;DHT22;57248;47.320;15.998;2023-04-25T00:28:04;9.60;70.19
69938;DHT22;57248;47.320;15.998;2023-04-25T00:30:29;9.57;69.96
69938;DHT22;57248;47.320;15.998;2023-04-25T00:33:01;9.87;64.10
69938;DHT22;57248;47.320;15.998;2023-04-25T00:35:33;9.67;69.47
69938;DHT22;57248;47.320;15.998;2023-04-25T00:38:06;9.64;67.52
69938;DHT22;57248;47.320;15.998;2023-04-25T00:40:38;9.88;64.11
69938;DHT22;57248;47.320;15.998;2023-04-25T00:43:11;9.71;66.92
69938;DHT22;57248;47.320;15.998;2023-04-25T00:45:43;9.64;66.93
69938;DHT22;57248;47.320;15.998;2023-04-25T00:48:17;9.63;66.02
69938;DHT22;57248;47.320;15.998;2023-04-25T00:50:54;9.63;67.23
69938;DHT22;57248;47.320;15.998;2023-04-25T00:53:27;9.53;68.62
69938;DHT22;57248;47.320;15.998;2023-04-25T00:55:59;9.55;68.41
69938;DHT22;57248;47.320;15.998;2023-04-25T00:58:31;9.48;68.89
69938;DHT22;57248;47.320;15.998;2023-04-25T01:01:03;9.48;68.34
69938;DHT22;57248;47.320;15.998;2023-04-25T01:03:37;9.42;69.08
69938;DHT22;57248;47.320;15.998;2023-04-25T01:06:12;9.34;70.65
69938;DHT22;57248;47.320;15.998;2023-04-25T01:08:44;9.36;69.77
69938;DHT22;57248;47.320;15.998;2023-04-25T01:11:17;9.30;70.02
69938;DHT22;57248;47.320;15.998;2023-04-25T01:13:56;9.32;69.45
69938;DHT22;57248;47.320;15.998;2023-04-25T01:16:28;9.16;72.69
69938;DHT22;57248;47.320;15.998;2023-04-25T01:19:10;8.91;74.71
69938;DHT22;57248;47.320;15.998;2023-04-25T01:21:45;9.03;73.83
69938;DHT22;57248;47.320;15.998;2023-04-25T01:24:18;9.09;71.63
69938;DHT22;57248;47.320;15.998;2023-04-25T01:26:50;9.15;70.57
69938;DHT22;57248;47.320;15.998;2023-04-25T01:29:20;9.74;60.24
69938;DHT22;57248;47.320;15.998;2023-04-25T01:31:52;9.88;59.08
69938;DHT22;57248;47.320;15.998;2023-04-25T01:34:25;9.78;61.14
69938;DHT22;57248;47.320;15.998;2023-04-25T01:36:59;9.58;66.68
69938;DHT22;57248;47.320;15.998;2023-04-25T01:39:31;9.46;66.30
69938;DHT22;57248;47.320;15.998;2023-04-25T01:42:05;9.46;67.29
69938;DHT22;57248;47.320;15.998;2023-04-25T01:44:37;9.29;70.20
69938;DHT22;57248;47.320;15.998;2023-04-25T01:47:09;9.19;72.39
69938;DHT22;57248;47.320;15.998;2023-04-25T01:49:42;9.22;69.78
69938;DHT22;57248;47.320;15.998;2023-04-25T01:52:14;9.42;67.00
69938;DHT22;57248;47.320;15.998;2023-04-25T01:54:47;9.73;61.48
69938;DHT22;57248;47.320;15.998;2023-04-25T01:57:19;9.58;62.08
69938;DHT22;57248;47.320;15.998;2023-04-25T01:59:59;9.53;61.46
69938;DHT22;57248;47.320;15.998;2023-04-25T02:02:40;9.48;62.31
69938;DHT22;57248;47.320;15.998;2023-04-25T02:05:22;9.60;62.59
69938;DHT22;57248;47.320;15.998;2023-04-25T02:07:54;9.51;62.49
69938;DHT22;57248;47.320;15.998;2023-04-25T02:10:26;9.42;63.25
69938;DHT22;57248;47.320;15.998;2023-04-25T02:13:18;9.40;61.93
69938;DHT22;57248;47.320;15.998;2023-04-25T02:16:04;9.46;60.85
69938;DHT22;57248;47.320;15.998;2023-04-25T02:18:37;9.32;61.70
69938;DHT22;57248;47.320;15.998;2023-04-25T02:21:10;9.20;62.44
69938;DHT22;57248;47.320;15.998;2023-04-25T02:23:43;9.19;62.17
69938;DHT22;57248;47.320;15.998;2023-04-25T02:26:17;9.15;61.99
69938;DHT22;57248;47.320;15.998;2023-04-25T02:28:50;9.20;61.42
69938;DHT22;57248;47.320;15.998;2023-04-25T02:31:18;9.06;62.44
69938;DHT22;57248;47.320;15.998;2023-04-25T02:33:51;8.86;65.03
69938;DHT22;57248;47.320;15.998;2023-04-25T02:36:23;8.82;64.76
69938;DHT22;57248;47.320;15.998;2023-04-25T02:38:55;8.74;64.95
69938;DHT22;57248;47.320;15.998;2023-04-25T02:41:27;8.61;66.76
69938;DHT22;57248;47.320;15.998;2023-04-25T02:43:59;8.50;67.49
69938;DHT22;57248;47.320;15.998;2023-04-25T02:46:31;8.54;65.73
69938;DHT22;57248;47.320;15.998;2023-04-25T02:49:03;8.44;66.65
69938;DHT22;57248;47.320;15.998;2023-04-25T02:51:29;8.20;70.82
69938;DHT22;57248;47.320;15.998;2023-04-25T02:54:02;8.14;71.17
69938;DHT22;57248;47.320;15.998;2023-04-25T02:56:39;8.02;71.49
69938;DHT22;57248;47.320;15.998;2023-04-25T02:59:17;7.75;71.60
69938;DHT22;57248;47.320;15.998;2023-04-25T03:01:49;7.79;72.81
69938;DHT22;57248;47.320;15.998;2023-04-25T03:04:15;7.51;74.47
69938;DHT22;57248;47.320;15.998;2023-04-25T03:06:47;7.42;73.38
69938;DHT22;57248;47.320;15.998;2023-04-25T03:09:20;7.54;69.98
69938;DHT22;57248;47.320;15.998;2023-04-25T03:11:52;7.94;66.74
69938;DHT22;57248;47.320;15.998;2023-04-25T03:14:24;7.63;70.08
69938;DHT22;57248;47.320;15.998;2023-04-25T03:17:10;7.51;70.67
69938;DHT22;57248;47.320;15.998;2023-04-25T03:19:42;7.47;70.04
69938;DHT22;57248;47.320;15.998;2023-04-25T03:22:14;7.44;70.22
69938;DHT22;57248;47.320;15.998;2023-04-25T03:24:47;7.28;70.50
69938;DHT22;57248;47.320;15.998;2023-04-25T03:27:13;7.31;70.24
69938;DHT22;57248;47.320;15.998;2023-04-25T03:29:45;7.42;69.80
69938;DHT22;57248;47.320;15.998;2023-04-25T03:32:18;7.40;69.76
69938;DHT22;57248;47.320;15.998;2023-04-25T03:34:50;7.27;70.63
69938;DHT22;57248;47.320;15.998;2023-04-25T03:37:24;7.11;72.35
69938;DHT22;57248;47.320;15.998;2023-04-25T03:39:56;7.05;72.38
69938;DHT22;57248;47.320;15.998;2023-04-25T03:42:48;7.01;71.63
69938;DHT22;57248;47.320;15.998;2023-04-25T03:45:20;6.92;73.02
69938;DHT22;57248;47.320;15.998;2023-04-25T03:47:53;6.71;76.30
69938;DHT22;57248;47.320;15.998;2023-04-25T03:50:27;6.57;77.95
69938;DHT22;57248;47.320;15.998;2023-04-25T03:52:59;6.55;77.65
69938;DHT22;57248;47.320;15.998;2023-04-25T03:55:47;6.41;78.11
69938;DHT22;57248;47.320;15.998;2023-04-25T03:58:19;6.35;77.15
69938;DHT22;57248;47.320;15.998;2023-04-25T04:00:51;6.22;78.18
69938;DHT22;57248;47.320;15.998;2023-04-25T04:03:23;6.05;78.20
69938;DHT22;57248;47.320;15.998;2023-04-25T04:05:55;6.00;78.74
69938;DHT22;57248;47.320;15.998;2023-04-25T04:08:27;6.10;79.06
69938;DHT22;57248;47.320;15.998;2023-04-25T04:10:59;6.07;77.92
69938;DHT22;57248;47.320;15.998;2023-04-25T04:13:32;6.00;78.58
69938;DHT22;57248;47.320;15.998;2023-04-25T04:16:05;5.84;78.90
69938;DHT22;57248;47.320;15.998;2023-04-25T04:18:46;5.90;79.14
69938;DHT22;57248;47.320;15.998;2023-04-25T04:21:18;5.71;79.85
69938;DHT22;57248;47.320;15.998;2023-04-25T04:23:50;5.75;80.94
69938;DHT22;57248;47.320;15.998;2023-04-25T04:26:24;5.75;80.84
69938;DHT22;57248;47.320;15.998;2023-04-25T04:29:07;5.67;81.57
69938;DHT22;57248;47.320;15.998;2023-04-25T04:31:48;5.77;80.70
69938;DHT22;57248;47.320;15.998;2023-04-25T04:34:21;5.89;80.08
69938;DHT22;57248;47.320;15.998;2023-04-25T04:36:53;5.74;81.15
69938;DHT22;57248;47.320;15.998;2023-04-25T04:39:25;5.86;80.77
69938;DHT22;57248;47.320;15.998;2023-04-25T04:42:15;5.95;80.90
69938;DHT22;57248;47.320;15.998;2023-04-25T04:45:05;5.97;80.70
69938;DHT22;57248;47.320;15.998;2023-04-25T04:47:58;6.07;81.14
69938;DHT22;57248;47.320;15.998;2023-04-25T04:50:48;6.35;80.69
69938;DHT22;57248;47.320;15.998;2023-04-25T04:53:41;6.50;80.86
69938;DHT22;57248;47.320;15.998;2023-04-25T04:56:19;6.75;79.33
69938;DHT22;57248;47.320;15.998;2023-04-25T04:59:10;7.03;78.73
69938;DHT22;57248;47.320;15.998;2023-04-25T05:02:02;7.25;76.53
69938;DHT22;57248;47.320;15.998;2023-04-25T05:04:56;9.30;85.35
69938;DHT22;57248;47.320;15.998;2023-04-25T05:08:03;8.13;78.78
69938;DHT22;57248;47.320;15.998;2023-04-25T05:10:54;8.13;74.97
69938;DHT22;57248;47.320;15.998;2023-04-25T05:13:35;8.36;74.91
69938;DHT22;57248;47.320;15.998;2023-04-25T05:16:40;8.61;74.85
69938;DHT22;57248;47.320;15.998;2023-04-25T05:19:22;8.41;74.00
69938;DHT22;57248;47.320;15.998;2023-04-25T05:22:12;8.75;73.72
69938;DHT22;57248;47.320;15.998;2023-04-25T05:24:59;8.86;72.62
69938;DHT22;57248;47.320;15.998;2023-04-25T05:27:57;9.22;73.48
69938;DHT22;57248;47.320;15.998;2023-04-25T05:30:43;9.84;74.25
69938;DHT22;57248;47.320;15.998;2023-04-25T05:33:18;10.04;71.41
69938;DHT22;57248;47.320;15.998;2023-04-25T05:35:50;10.22;70.02
69938;DHT22;57248;47.320;15.998;2023-04-25T05:38:16;10.48;71.14
69938;DHT22;57248;47.320;15.998;2023-04-25T05:41:18;10.87;71.46
69938;DHT22;57248;47.320;15.998;2023-04-25T05:44:00;11.15;70.94
69938;DHT22;57248;47.320;15.998;2023-04-25T05:47:04;11.59;62.56
69938;DHT22;57248;47.320;15.998;2023-04-25T05:49:55;11.89;61.28
69938;DHT22;57248;47.320;15.998;2023-04-25T05:52:43;11.94;58.81
69938;DHT22;57248;47.320;15.998;2023-04-25T05:55:41;12.17;58.01
69938;DHT22;57248;47.320;15.998;2023-04-25T05:58:21;12.47;55.11
69938;DHT22;57248;47.320;15.998;2023-04-25T06:00:56;12.65;56.67
69938;DHT22;57248;47.320;15.998;2023-04-25T06:03:28;12.47;54.14
69938;DHT22;57248;47.320;15.998;2023-04-25T06:06:01;13.00;56.84
69938;DHT22;57248;47.320;15.998;2023-04-25T06:08:33;13.61;55.50
69938;DHT22;57248;47.320;15.998;2023-04-25T06:11:05;13.32;51.62
69938;DHT22;57248;47.320;15.998;2023-04-25T06:13:37;13.87;53.18
69938;DHT22;57248;47.320;15.998;2023-04-25T06:16:11;13.66;54.42
69938;DHT22;57248;47.320;15.998;2023-04-25T06:18:49;13.88;54.03
69938;DHT22;57248;47.320;15.998;2023-04-25T06:21:21;13.80;52.36
69938;DHT22;57248;47.320;15.998;2023-04-25T06:23:53;14.50;53.09
69938;DHT22;57248;47.320;15.998;2023-04-25T06:26:26;14.94;52.42
69938;DHT22;57248;47.320;15.998;2023-04-25T06:28:58;14.93;49.88
69938;DHT22;57248;47.320;15.998;2023-04-25T06:31:30;14.72;48.21
69938;DHT22;57248;47.320;15.998;2023-04-25T06:34:06;14.94;50.80
69938;DHT22;57248;47.320;15.998;2023-04-25T06:36:40;15.38;50.86
69938;DHT22;57248;47.320;15.998;2023-04-25T06:39:15;15.30;49.23
69938;DHT22;57248;47.320;15.998;2023-04-25T06:41:48;15.57;48.59
69938;DHT22;57248;47.320;15.998;2023-04-25T06:44:42;16.18;46.38
69938;DHT22;57248;47.320;15.998;2023-04-25T06:47:17;16.44;43.49
69938;DHT22;57248;47.320;15.998;2023-04-25T06:49:49;16.68;46.59
69938;DHT22;57248;47.320;15.998;2023-04-25T06:52:15;16.75;45.27
69938;DHT22;57248;47.320;15.998;2023-04-25T06:54:51;17.08;46.74
69938;DHT22;57248;47.320;15.998;2023-04-25T06:57:35;17.18;46.53
69938;DHT22;57248;47.320;15.998;2023-04-25T07:00:27;17.32;44.53
69938;DHT22;57248;47.320;15.998;2023-04-25T07:03:00;17.53;46.58
69938;DHT22;57248;47.320;15.998;2023-04-25T07:05:32;17.66;45.39
69938;DHT22;57248;47.320;15.998;2023-04-25T07:08:05;17.57;45.65
69938;DHT22;57248;47.320;15.998;2023-04-25T07:10:37;17.49;42.85
69938;DHT22;57248;47.320;15.998;2023-04-25T07:13:11;17.63;44.17
69938;DHT22;57248;47.320;15.998;2023-04-25T07:15:43;17.46;40.12
69938;DHT22;57248;47.320;15.998;2023-04-25T07:18:25;17.74;44.74
69938;DHT22;57248;47.320;15.998;2023-04-25T07:20:58;17.43;42.17
69938;DHT22;57248;47.320;15.998;2023-04-25T07:23:32;17.81;42.54
69938;DHT22;57248;47.320;15.998;2023-04-25T07:26:10;18.29;38.81
69938;DHT22;57248;47.320;15.998;2023-04-25T07:29:02;18.65;42.30
69938;DHT22;57248;47.320;15.998;2023-04-25T07:31:34;18.84;42.28
69938;DHT22;57248;47.320;15.998;2023-04-25T07:34:06;19.14;38.50
69938;DHT22;57248;47.320;15.998;2023-04-25T07:36:38;19.51;38.37
69938;DHT22;57248;47.320;15.998;2023-04-25T07:39:11;20.00;40.11
69938;DHT22;57248;47.320;15.998;2023-04-25T07:41:44;20.41;40.10
69938;DHT22;57248;47.320;15.998;2023-04-25T07:44:15;20.14;39.08
69938;DHT22;57248;47.320;15.998;2023-04-25T07:46:47;20.88;40.13
69938;DHT22;57248;47.320;15.998;2023-04-25T07:49:13;21.39;37.54
69938;DHT22;57248;47.320;15.998;2023-04-25T07:51:45;21.23;38.35
69938;DHT22;57248;47.320;15.998;2023-04-25T07:54:19;22.20;36.70
69938;DHT22;57248;47.320;15.998;2023-04-25T07:57:00;22.02;38.65
69938;DHT22;57248;47.320;15.998;2023-04-25T07:59:35;22.11;36.13
69938;DHT22;57248;47.320;15.998;2023-04-25T08:02:07;20.26;37.90
69938;DHT22;57248;47.320;15.998;2023-04-25T08:04:39;20.14;37.71
69938;DHT22;57248;47.320;15.998;2023-04-25T08:07:15;20.57;36.00
69938;DHT22;57248;47.320;15.998;2023-04-25T08:09:51;21.98;33.17
69938;DHT22;57248;47.320;15.998;2023-04-25T08:12:31;19.00;36.40
69938;DHT22;57248;47.320;15.998;2023-04-25T08:15:11;19.78;39.44
69938;DHT22;57248;47.320;15.998;2023-04-25T08:17:50;17.90;39.65
69938;DHT22;57248;47.320;15.998;2023-04-25T08:20:22;19.39;38.80
69938;DHT22;57248;47.320;15.998;2023-04-25T08:22:58;22.68;36.05
69938;DHT22;57248;47.320;15.998;2023-04-25T08:25:44;21.98;36.58
69938;DHT22;57248;47.320;15.998;2023-04-25T08:28:20;23.58;33.77
69938;DHT22;57248;47.320;15.998;2023-04-25T08:30:52;22.44;36.32
69938;DHT22;57248;47.320;15.998;2023-04-25T08:33:30;22.76;36.18
69938;DHT22;57248;47.320;15.998;2023-04-25T08:36:24;23.68;33.27
69938;DHT22;57248;47.320;15.998;2023-04-25T08:38:56;23.88;34.47
69938;DHT22;57248;47.320;15.998;2023-04-25T08:41:29;22.44;31.46
69938;DHT22;57248;47.320;15.998;2023-04-25T08:44:03;23.38;33.23
69938;DHT22;57248;47.320;15.998;2023-04-25T08:46:38;22.82;32.83
69938;DHT22;57248;47.320;15.998;2023-04-25T08:49:22;28.08;26.86
69938;DHT22;57248;47.320;15.998;2023-04-25T08:52:07;24.53;30.15
69938;DHT22;57248;47.320;15.998;2023-04-25T08:54:48;25.11;29.38
69938;DHT22;57248;47.320;15.998;2023-04-25T08:57:22;24.46;27.31
69938;DHT22;57248;47.320;15.998;2023-04-25T08:59:56;29.42;26.45
69938;DHT22;57248;47.320;15.998;2023-04-25T09:02:32;29.37;25.24
69938;DHT22;57248;47.320;15.998;2023-04-25T09:05:05;22.97;32.75
69938;DHT22;57248;47.320;15.998;2023-04-25T09:07:38;21.84;34.52
69938;DHT22;57248;47.320;15.998;2023-04-25T09:10:10;21.03;32.73
69938;DHT22;57248;47.320;15.998;2023-04-25T09:12:43;20.95;32.06
69938;DHT22;57248;47.320;15.998;2023-04-25T09:15:15;20.48;34.76
69938;DHT22;57248;47.320;15.998;2023-04-25T09:17:57;21.06;33.56
69938;DHT22;57248;47.320;15.998;2023-04-25T09:20:42;21.81;32.43
69938;DHT22;57248;47.320;15.998;2023-04-25T09:23:19;20.16;33.24
69938;DHT22;57248;47.320;15.998;2023-04-25T09:25:53;19.71;33.58
69938;DHT22;57248;47.320;15.998;2023-04-25T09:28:26;19.14;34.06
69938;DHT22;57248;47.320;15.998;2023-04-25T09:31:01;20.96;38.77
69938;DHT22;57248;47.320;15.998;2023-04-25T09:33:43;20.54;34.10
69938;DHT22;57248;47.320;15.998;2023-04-25T09:36:15;21.19;31.65
69938;DHT22;57248;47.320;15.998;2023-04-25T09:38:59;21.11;31.17
69938;DHT22;57248;47.320;15.998;2023-04-25T09:41:37;21.74;32.32
69938;DHT22;57248;47.320;15.998;2023-04-25T09:44:12;22.01;32.22
69938;DHT22;57248;47.320;15.998;2023-04-25T09:46:49;22.28;32.52
69938;DHT22;57248;47.320;15.998;2023-04-25T09:49:27;23.67;30.90
69938;DHT22;57248;47.320;15.998;2023-04-25T09:52:16;23.07;31.64
69938;DHT22;57248;47.320;15.998;2023-04-25T09:54:57;22.02;32.11
69938;DHT22;57248;47.320;15.998;2023-04-25T09:57:32;20.90;32.76
69938;DHT22;57248;47.320;15.998;2023-04-25T10:00:05;21.53;29.80
69938;DHT22;57248;47.320;15.998;2023-04-25T10:02:42;22.12;30.88
69938;DHT22;57248;47.320;15.998;2023-04-25T10:05:44;22.47;32.24
69938;DHT22;57248;47.320;15.998;2023-04-25T10:08:18;21.91;31.87
69938;DHT22;57248;47.320;15.998;2023-04-25T10:10:53;22.01;33.32
69938;DHT22;57248;47.320;15.998;2023-04-25T10:13:25;21.64;34.35
69938;DHT22;57248;47.320;15.998;2023-04-25T10:15:59;20.68;33.10
69938;DHT22;57248;47.320;15.998;2023-04-25T10:18:32;20.16;33.48
69938;DHT22;57248;47.320;15.998;2023-04-25T10:21:05;21.46;32.30
69938;DHT22;57248;47.320;15.998;2023-04-25T10:23:39;20.95;32.34
69938;DHT22;57248;47.320;15.998;2023-04-25T10:26:12;20.22;31.96
69938;DHT22;57248;47.320;15.998;2023-04-25T10:29:03;21.79;32.65
69938;DHT22;57248;47.320;15.998;2023-04-25T10:31:45;21.46;30.84
69938;DHT22;57248;47.320;15.998;2023-04-25T10:34:17;20.72;31.57
69938;DHT22;57248;47.320;15.998;2023-04-25T10:36:51;20.33;33.19
69938;DHT22;57248;47.320;15.998;2023-04-25T10:39:26;19.85;32.60
69938;DHT22;57248;47.320;15.998;2023-04-25T10:41:59;17.50;34.08
69938;DHT22;57248;47.320;15.998;2023-04-25T10:44:34;18.99;35.83
69938;DHT22;57248;47.320;15.998;2023-04-25T10:47:07;20.22;33.55
69938;DHT22;57248;47.320;15.998;2023-04-25T10:49:42;20.84;32.93
69938;DHT22;57248;47.320;15.998;2023-04-25T10:55:04;23.02;32.43
69938;DHT22;57248;47.320;15.998;2023-04-25T10:57:44;23.96;32.36
69938;DHT22;57248;47.320;15.998;2023-04-25T11:00:22;25.50;29.59
69938;DHT22;57248;47.320;15.998;2023-04-25T11:02:59;27.58;29.06
69938;DHT22;57248;47.320;15.998;2023-04-25T11:05:36;31.67;26.07
69938;DHT22;57248;47.320;15.998;2023-04-25T11:08:11;28.02;26.54
69938;DHT22;57248;47.320;15.998;2023-04-25T11:10:44;26.17;30.08
69938;DHT22;57248;47.320;15.998;2023-04-25T11:13:15;27.06;26.58
69938;DHT22;57248;47.320;15.998;2023-04-25T11:15:51;25.53;28.82
69938;DHT22;57248;47.320;15.998;2023-04-25T11:18:26;24.39;29.76
69938;DHT22;57248;47.320;15.998;2023-04-25T11:20:58;23.86;32.95
69938;DHT22;57248;47.320;15.998;2023-04-25T11:23:31;23.44;31.88
69938;DHT22;57248;47.320;15.998;2023-04-25T11:26:04;22.82;31.80
69938;DHT22;57248;47.320;15.998;2023-04-25T11:28:35;23.55;33.11
69938;DHT22;57248;47.320;15.998;2023-04-25T11:31:08;24.53;30.19
69938;DHT22;57248;47.320;15.998;2023-04-25T11:33:41;24.87;31.70
69938;DHT22;57248;47.320;15.998;2023-04-25T11:36:09;27.22;27.96
69938;DHT22;57248;47.320;15.998;2023-04-25T11:38:41;27.98;26.92
69938;DHT22;57248;47.320;15.998;2023-04-25T11:41:13;25.83;27.35
69938;DHT22;57248;47.320;15.998;2023-04-25T11:43:45;24.84;28.17
69938;DHT22;57248;47.320;15.998;2023-04-25T11:46:17;26.40;28.42
69938;DHT22;57248;47.320;15.998;2023-04-25T11:48:51;25.42;27.91
69938;DHT22;57248;47.320;15.998;2023-04-25T11:51:44;25.28;29.69
69938;DHT22;57248;47.320;15.998;2023-04-25T11:54:16;25.25;29.00
69938;DHT22;57248;47.320;15.998;2023-04-25T11:56:49;24.90;29.85
69938;DHT22;57248;47.320;15.998;2023-04-25T11:59:25;24.15;29.85
69938;DHT22;57248;47.320;15.998;2023-04-25T12:01:57;23.78;31.08
69938;DHT22;57248;47.320;15.998;2023-04-25T12:04:30;24.19;29.53
69938;DHT22;57248;47.320;15.998;2023-04-25T12:07:02;24.33;31.44
69938;DHT22;57248;47.320;15.998;2023-04-25T12:09:34;24.78;31.64
69938;DHT22;57248;47.320;15.998;2023-04-25T12:12:09;25.32;29.89
69938;DHT22;57248;47.320;15.998;2023-04-25T12:14:46;26.28;29.49
69938;DHT22;57248;47.320;15.998;2023-04-25T12:17:28;28.69;25.33
69938;DHT22;57248;47.320;15.998;2023-04-25T12:20:06;25.55;29.36
69938;DHT22;57248;47.320;15.998;2023-04-25T12:22:41;24.73;29.94
69938;DHT22;57248;47.320;15.998;2023-04-25T12:25:34;24.36;29.44
69938;DHT22;57248;47.320;15.998;2023-04-25T12:31:05;26.08;25.37
69938;DHT22;57248;47.320;15.998;2023-04-25T12:33:37;27.84;27.15
69938;DHT22;57248;47.320;15.998;2023-04-25T12:36:11;24.25;29.23
69938;DHT22;57248;47.320;15.998;2023-04-25T12:38:44;24.25;31.13
69938;DHT22;57248;47.320;15.998;2023-04-25T12:41:16;23.40;30.92
69938;DHT22;57248;47.320;15.998;2023-04-25T12:43:49;25.82;29.05
69938;DHT22;57248;47.320;15.998;2023-04-25T12:46:21;25.70;28.89
69938;DHT22;57248;47.320;15.998;2023-04-25T12:48:54;25.55;28.71
69938;DHT22;57248;47.320;15.998;2023-04-25T12:51:26;25.39;28.23
69938;DHT22;57248;47.320;15.998;2023-04-25T12:54:07;25.35;27.92
69938;DHT22;57248;47.320;15.998;2023-04-25T12:56:41;23.92;27.82
69938;DHT22;57248;47.320;15.998;2023-04-25T12:59:14;24.41;27.35
69938;DHT22;57248;47.320;15.998;2023-04-25T13:01:45;24.32;28.00
69938;DHT22;57248;47.320;15.998;2023-04-25T13:04:11;24.55;28.26
69938;DHT22;57248;47.320;15.998;2023-04-25T13:06:42;25.59;26.14
69938;DHT22;57248;47.320;15.998;2023-04-25T13:09:14;26.62;26.56
69938;DHT22;57248;47.320;15.998;2023-04-25T13:11:47;25.85;26.63
69938;DHT22;57248;47.320;15.998;2023-04-25T13:14:19;26.13;27.15
69938;DHT22;57248;47.320;15.998;2023-04-25T13:16:51;27.60;25.55
69938;DHT22;57248;47.320;15.998;2023-04-25T13:19:23;27.80;24.74
69938;DHT22;57248;47.320;15.998;2023-04-25T13:21:57;28.28;25.94
69938;DHT22;57248;47.320;15.998;2023-04-25T13:24:30;26.98;25.10
69938;DHT22;57248;47.320;15.998;2023-04-25T13:26:56;27.44;26.60
69938;DHT22;57248;47.320;15.998;2023-04-25T13:29:28;27.87;25.53
69938;DHT22;57248;47.320;15.998;2023-04-25T13:32:01;28.84;25.32
69938;DHT22;57248;47.320;15.998;2023-04-25T13:34:33;29.93;24.77
69938;DHT22;57248;47.320;15.998;2023-04-25T13:37:05;29.21;23.46
69938;DHT22;57248;47.320;15.998;2023-04-25T13:39:37;27.76;25.33
69938;DHT22;57248;47.320;15.998;2023-04-25T13:42:09;30.54;25.41
69938;DHT22;57248;47.320;15.998;2023-04-25T13:44:42;30.10;22.90
69938;DHT22;57248;47.320;15.998;2023-04-25T13:47:14;31.63;21.73
69938;DHT22;57248;47.320;15.998;2023-04-25T13:49:46;29.59;24.17
69938;DHT22;57248;47.320;15.998;2023-04-25T13:52:18;25.18;28.57
69938;DHT22;57248;47.320;15.998;2023-04-25T13:54:50;24.27;29.20
69938;DHT22;57248;47.320;15.998;2023-04-25T13:57:23;23.41;29.02
69938;DHT22;57248;47.320;15.998;2023-04-25T13:59:56;23.37;28.23
69938;DHT22;57248;47.320;15.998;2023-04-25T14:02:32;23.40;28.75
69938;DHT22;57248;47.320;15.998;2023-04-25T14:05:06;23.48;31.17
69938;DHT22;57248;47.320;15.998;2023-04-25T14:07:38;22.75;31.82
69938;DHT22;57248;47.320;15.998;2023-04-25T14:10:10;22.83;31.51
69938;DHT22;57248;47.320;15.998;2023-04-25T14:12:42;20.33;35.56
69938;DHT22;57248;47.320;15.998;2023-04-25T14:15:14;18.39;41.36
69938;DHT22;57248;47.320;15.998;2023-04-25T14:17:46;17.01;44.09
69938;DHT22;57248;47.320;15.998;2023-04-25T14:20:20;16.54;45.33
69938;DHT22;57248;47.320;15.998;2023-04-25T14:22:46;16.86;45.43
69938;DHT22;57248;47.320;15.998;2023-04-25T14:25:18;16.51;45.88
69938;DHT22;57248;47.320;15.998;2023-04-25T14:27:51;16.23;50.70
69938;DHT22;57248;47.320;15.998;2023-04-25T14:30:22;16.71;46.24
69938;DHT22;57248;47.320;15.998;2023-04-25T14:32:56;16.27;45.53
69938;DHT22;57248;47.320;15.998;2023-04-25T14:35:27;15.63;46.94
69938;DHT22;57248;47.320;15.998;2023-04-25T14:38:01;16.36;45.64
69938;DHT22;57248;47.320;15.998;2023-04-25T14:40:32;17.78;43.87
69938;DHT22;57248;47.320;15.998;2023-04-25T14:42:58;17.62;44.20
69938;DHT22;57248;47.320;15.998;2023-04-25T14:45:29;20.47;38.61
69938;DHT22;57248;47.320;15.998;2023-04-25T14:48:01;18.80;41.74
69938;DHT22;57248;47.320;15.998;2023-04-25T14:50:33;18.59;42.87
69938;DHT22;57248;47.320;15.998;2023-04-25T14:53:06;19.71;41.92
69938;DHT22;57248;47.320;15.998;2023-04-25T14:55:38;18.53;43.30
69938;DHT22;57248;47.320;15.998;2023-04-25T14:58:09;19.00;43.21
69938;DHT22;57248;47.320;15.998;2023-04-25T15:00:41;18.41;44.36
69938;DHT22;57248;47.320;15.998;2023-04-25T15:03:16;17.18;42.56
69938;DHT22;57248;47.320;15.998;2023-04-25T15:05:48;16.79;43.22
69938;DHT22;57248;47.320;15.998;2023-04-25T15:08:21;16.78;42.21
69938;DHT22;57248;47.320;15.998;2023-04-25T15:10:52;16.38;44.03
69938;DHT22;57248;47.320;15.998;2023-04-25T15:13:25;15.76;44.56
69938;DHT22;57248;47.320;15.998;2023-04-25T15:15:57;15.99;44.56
69938;DHT22;57248;47.320;15.998;2023-04-25T15:18:29;16.17;44.19
69938;DHT22;57248;47.320;15.998;2023-04-25T15:21:02;16.85;42.38
69938;DHT22;57248;47.320;15.998;2023-04-25T15:23:33;16.82;43.59
69938;DHT22;57248;47.320;15.998;2023-04-25T15:26:05;17.62;42.19
69938;DHT22;57248;47.320;15.998;2023-04-25T15:28:37;18.90;40.03
69938;DHT22;57248;47.320;15.998;2023-04-25T15:31:09;19.20;38.35
69938;DHT22;57248;47.320;15.998;2023-04-25T15:33:41;19.11;39.01
69938;DHT22;57248;47.320;15.998;2023-04-25T15:36:13;19.38;37.72
69938;DHT22;57248;47.320;15.998;2023-04-25T15:38:47;20.12;36.88
69938;DHT22;57248;47.320;15.998;2023-04-25T15:41:19;20.77;37.44
69938;DHT22;57248;47.320;15.998;2023-04-25T15:43:47;20.30;37.85
69938;DHT22;57248;47.320;15.998;2023-04-25T15:46:20;21.32;36.44
69938;DHT22;57248;47.320;15.998;2023-04-25T15:48:53;22.11;37.05
69938;DHT22;57248;47.320;15.998;2023-04-25T15:51:27;21.69;36.09
69938;DHT22;57248;47.320;15.998;2023-04-25T15:53:58;20.48;36.32
69938;DHT22;57248;47.320;15.998;2023-04-25T15:56:38;21.35;36.54
69938;DHT22;57248;47.320;15.998;2023-04-25T15:59:12;20.29;36.41
69938;DHT22;57248;47.320;15.998;2023-04-25T16:01:43;20.36;38.08
69938;DHT22;57248;47.320;15.998;2023-04-25T16:04:16;20.26;37.41
69938;DHT22;57248;47.320;15.998;2023-04-25T16:06:48;19.51;37.63
69938;DHT22;57248;47.320;15.998;2023-04-25T16:09:19;19.39;38.96
69938;DHT22;57248;47.320;15.998;2023-04-25T16:11:53;19.73;38.20
69938;DHT22;57248;47.320;15.998;2023-04-25T16:14:24;19.59;38.40